createdAt,value
2018-10-18T00:00:06.977Z,75.50
2018-10-18T00:02:36.438Z,80.67
2018-10-18T00:05:07.559Z,92.33
2018-10-18T00:07:36.910Z,82.83
2018-10-18T00:10:07.833Z,82.87
2018-10-18T00:12:37.389Z,82.63
2018-10-18T00:15:07.952Z,88.57
2018-10-18T00:17:42.471Z,85.73
2018-10-18T00:20:11.908Z,81.30
2018-10-18T00:22:41.313Z,81.60
2018-10-18T00:25:10.699Z,77.90
2018-10-18T00:27:40.474Z,84.43
2018-10-18T00:30:12.502Z,73.33
2018-10-18T00:32:42.614Z,82.90
2018-10-18T00:35:12.256Z,72.60
2018-10-18T00:37:41.604Z,95.43
2018-10-18T00:40:12.054Z,85.27
2018-10-18T00:42:42.026Z,73.83
2018-10-18T00:45:11.666Z,76.50
2018-10-18T00:47:41.032Z,76.30
2018-10-18T00:50:11.624Z,83.30
2018-10-18T00:52:41.130Z,76.90
2018-10-18T00:55:11.432Z,79.20
2018-10-18T00:57:41.583Z,70.23
2018-10-18T01:00:11.901Z,86.47
2018-10-18T01:02:41.183Z,88.93
2018-10-18T01:05:10.539Z,94.10
2018-10-18T01:07:39.930Z,89.80
2018-10-18T01:10:09.306Z,86.73
2018-10-18T01:12:38.745Z,78.33
2018-10-18T01:15:08.782Z,76.77
2018-10-18T01:17:38.162Z,90.80
2018-10-18T01:20:07.606Z,95.57
2018-10-18T01:22:36.952Z,77.87
2018-10-18T01:25:07.214Z,84.87
2018-10-18T01:27:36.595Z,86.63
2018-10-18T01:30:07.107Z,84.37
2018-10-18T01:32:36.594Z,82.10
2018-10-18T01:35:06.658Z,82.27
2018-10-18T01:37:36.066Z,88.57
2018-10-18T01:40:05.730Z,79.73
2018-10-18T01:42:35.126Z,88.33
2018-10-18T01:45:04.787Z,73.47
2018-10-18T01:47:34.215Z,94.17
2018-10-18T01:50:03.647Z,79.40
2018-10-18T01:52:33.114Z,83.93
2018-10-18T01:55:02.714Z,75.30
2018-10-18T01:57:32.225Z,86.33
2018-10-18T02:00:01.874Z,81.77
2018-10-18T02:02:31.525Z,78.60
2018-10-18T02:05:01.113Z,93.07
2018-10-18T02:07:30.632Z,90.30
2018-10-18T02:10:00.244Z,89.07
2018-10-18T02:12:29.842Z,88.30
2018-10-18T02:14:59.369Z,79.53
2018-10-18T02:17:29.810Z,83.23
2018-10-18T02:19:59.318Z,75.23
2018-10-18T02:22:28.833Z,79.87
2018-10-18T02:24:58.511Z,80.33
2018-10-18T02:27:28.050Z,88.53
2018-10-18T02:29:57.598Z,88.10
2018-10-18T02:32:27.161Z,80.77
2018-10-18T02:34:56.684Z,88.97
2018-10-18T02:37:26.221Z,90.90
2018-10-18T02:39:55.836Z,90.83
2018-10-18T02:42:25.342Z,91.57
2018-10-18T02:44:54.881Z,91.13
2018-10-18T02:47:24.417Z,79.37
2018-10-18T02:49:54.037Z,92.37
2018-10-18T02:52:23.561Z,85.93
2018-10-18T02:54:53.272Z,83.73
2018-10-18T02:57:22.775Z,92.97
2018-10-18T02:59:52.331Z,88.43
2018-10-18T03:02:21.873Z,90.27
2018-10-18T03:04:51.385Z,93.50
2018-10-18T03:07:20.934Z,81.07
2018-10-18T03:09:50.592Z,94.43
2018-10-18T03:12:20.235Z,95.60
2018-10-18T03:14:49.744Z,97.43
2018-10-18T03:17:19.325Z,84.20
2018-10-18T03:19:48.916Z,92.60
2018-10-18T03:22:18.538Z,87.63
2018-10-18T03:24:48.064Z,76.90
2018-10-18T03:27:17.651Z,86.70
2018-10-18T03:29:47.233Z,89.30
2018-10-18T03:32:16.762Z,89.43
2018-10-18T03:34:46.300Z,91.73
2018-10-18T03:37:15.832Z,96.13
2018-10-18T03:39:45.403Z,81.20
2018-10-18T03:42:15.060Z,84.23
2018-10-18T03:44:44.489Z,95.27
2018-10-18T03:47:14.229Z,95.87
2018-10-18T03:49:43.812Z,89.00
2018-10-18T03:52:13.427Z,88.00
2018-10-18T03:54:43.058Z,89.07
2018-10-18T03:57:12.600Z,79.43
2018-10-18T03:59:42.238Z,80.73
2018-10-18T04:02:11.768Z,86.00
2018-10-18T04:04:41.258Z,81.63
2018-10-18T04:07:11.075Z,83.97
2018-10-18T04:09:40.806Z,79.13
2018-10-18T04:12:10.406Z,89.10
2018-10-18T04:14:39.921Z,90.07
2018-10-18T04:17:09.653Z,82.70
2018-10-18T04:19:39.211Z,77.00
2018-10-18T04:22:08.749Z,81.90
2018-10-18T04:24:38.299Z,95.73
2018-10-18T04:27:07.916Z,81.47
2018-10-18T04:29:37.524Z,84.43
2018-10-18T04:32:07.601Z,94.87
2018-10-18T04:34:37.331Z,95.70
2018-10-18T04:37:06.964Z,89.43
2018-10-18T04:39:36.684Z,89.50
2018-10-18T04:42:06.568Z,86.10
2018-10-18T04:44:36.222Z,81.83
2018-10-18T04:47:06.950Z,94.77
2018-10-18T04:49:36.496Z,96.97
2018-10-18T04:52:06.508Z,100.00
2018-10-18T04:54:36.097Z,90.07
2018-10-18T04:57:06.200Z,92.17
2018-10-18T04:59:35.840Z,80.97
2018-10-18T05:02:05.866Z,88.10
2018-10-18T05:04:35.385Z,96.43
2018-10-18T05:07:05.117Z,91.83
2018-10-18T05:09:34.644Z,85.60
2018-10-18T05:12:04.146Z,88.57
2018-10-18T05:14:33.684Z,86.67
2018-10-18T05:17:03.276Z,79.10
2018-10-18T05:19:32.797Z,90.03
2018-10-18T05:22:02.333Z,75.47
2018-10-18T05:24:31.913Z,85.00
2018-10-18T05:27:01.484Z,77.10
2018-10-18T05:29:31.050Z,140.70
2018-10-18T05:32:00.821Z,89.80
2018-10-18T05:34:30.453Z,99.23
2018-10-18T05:37:00.102Z,94.43
2018-10-18T05:39:29.684Z,101.30
2018-10-18T05:41:59.229Z,99.73
2018-10-18T05:44:28.823Z,105.00
2018-10-18T05:46:58.775Z,77.23
2018-10-18T05:49:28.424Z,93.67
2018-10-18T05:51:58.002Z,89.13
2018-10-18T05:54:28.467Z,97.27
2018-10-18T05:56:58.166Z,117.13
2018-10-18T05:59:28.204Z,88.23
2018-10-18T06:01:57.852Z,93.57
2018-10-18T06:04:27.476Z,98.67
2018-10-18T06:06:57.306Z,113.07
2018-10-18T06:09:32.567Z,108.53
2018-10-18T06:12:02.203Z,143.57
2018-10-18T06:14:31.971Z,102.30
2018-10-18T06:17:01.650Z,85.57
2018-10-18T06:19:31.277Z,102.10
2018-10-18T06:22:00.981Z,78.53
2018-10-18T06:24:30.701Z,81.63
2018-10-18T06:27:00.396Z,107.70
2018-10-18T06:29:30.206Z,93.50
2018-10-18T06:31:59.917Z,98.43
2018-10-18T06:34:29.545Z,93.37
2018-10-18T06:36:59.231Z,93.40
2018-10-18T06:39:28.887Z,88.80
2018-10-18T06:41:58.452Z,73.40
2018-10-18T06:44:28.109Z,75.80
2018-10-18T06:46:57.782Z,99.90
2018-10-18T06:49:27.345Z,83.37
2018-10-18T06:51:56.946Z,77.87
2018-10-18T06:54:26.595Z,95.77
2018-10-18T06:56:56.273Z,92.60
2018-10-18T06:59:25.892Z,98.30
2018-10-18T07:01:55.468Z,76.33
2018-10-18T07:04:25.098Z,111.87
2018-10-18T07:06:54.732Z,84.30
2018-10-18T07:09:24.392Z,89.63
2018-10-18T07:11:54.033Z,86.07
2018-10-18T07:14:23.653Z,71.53
2018-10-18T07:16:53.305Z,76.13
2018-10-18T07:19:22.929Z,102.07
2018-10-18T07:21:52.573Z,82.60
2018-10-18T07:24:22.340Z,88.67
2018-10-18T07:26:52.132Z,83.83
2018-10-18T07:29:21.725Z,77.93
2018-10-18T07:31:51.370Z,91.97
2018-10-18T07:34:20.976Z,96.87
2018-10-18T07:36:50.653Z,83.23
2018-10-18T07:39:20.260Z,78.73
2018-10-18T07:41:49.868Z,93.90
2018-10-18T07:44:19.489Z,91.60
2018-10-18T07:46:49.165Z,74.93
2018-10-18T07:49:18.741Z,88.87
2018-10-18T07:51:48.444Z,111.20
2018-10-18T07:54:18.164Z,92.47
2018-10-18T07:56:47.699Z,109.17
2018-10-18T07:59:17.302Z,94.07
2018-10-18T08:01:46.932Z,94.87
2018-10-18T08:04:16.522Z,90.33
2018-10-18T08:06:46.144Z,92.83
2018-10-18T08:09:15.770Z,87.83
2018-10-18T08:11:45.361Z,90.83
2018-10-18T08:14:15.000Z,75.57
2018-10-18T08:16:44.676Z,93.47
2018-10-18T08:19:14.332Z,107.90
2018-10-18T08:21:43.901Z,82.20
2018-10-18T08:24:13.508Z,97.20
2018-10-18T08:26:43.173Z,83.43
2018-10-18T08:29:13.098Z,85.27
2018-10-18T08:31:42.737Z,83.93
2018-10-18T08:34:12.345Z,77.27
2018-10-18T08:36:42.012Z,89.50
2018-10-18T08:39:12.524Z,93.70
2018-10-18T08:41:42.117Z,87.67
2018-10-18T08:44:11.735Z,85.93
2018-10-18T08:46:41.388Z,79.73
2018-10-18T08:49:11.248Z,89.37
2018-10-18T08:51:40.895Z,71.77
2018-10-18T08:54:10.536Z,70.67
2018-10-18T08:56:40.162Z,73.37
2018-10-18T08:59:09.843Z,74.70
2018-10-18T09:01:39.732Z,59.20
2018-10-18T09:04:09.379Z,68.60
2018-10-18T09:06:39.204Z,73.27
2018-10-18T09:09:09.840Z,70.63
2018-10-18T09:11:39.548Z,76.60
2018-10-18T09:14:09.181Z,68.60
2018-10-18T09:16:38.817Z,75.90
2018-10-18T09:19:08.519Z,76.67
2018-10-18T09:21:38.109Z,69.50
2018-10-18T09:24:07.808Z,74.03
2018-10-18T09:26:37.498Z,64.27
2018-10-18T09:29:07.169Z,67.67
2018-10-18T09:31:36.756Z,70.13
2018-10-18T09:34:06.845Z,76.57
2018-10-18T09:36:36.433Z,70.43
2018-10-18T09:39:08.251Z,96.67
2018-10-18T09:41:37.826Z,69.03
2018-10-18T09:44:07.789Z,72.47
2018-10-18T09:46:37.800Z,84.27
2018-10-18T09:49:07.519Z,62.63
2018-10-18T09:51:37.119Z,84.77
2018-10-18T09:54:07.511Z,75.93
2018-10-18T09:56:37.091Z,71.43
2018-10-18T09:59:06.927Z,76.77
2018-10-18T10:01:41.652Z,68.23
2018-10-18T10:04:11.398Z,71.87
2018-10-18T10:06:41.033Z,60.60
2018-10-18T10:09:10.672Z,69.33
2018-10-18T10:11:40.364Z,80.93
2018-10-18T10:14:09.937Z,86.63
2018-10-18T10:16:39.540Z,68.77
2018-10-18T10:19:09.180Z,78.33
2018-10-18T10:21:38.791Z,78.43
2018-10-18T10:24:08.425Z,85.70
2018-10-18T10:26:38.069Z,89.47
2018-10-18T10:29:07.853Z,80.83
2018-10-18T10:31:37.456Z,82.83
2018-10-18T10:34:07.148Z,80.73
2018-10-18T10:36:36.747Z,78.60
2018-10-18T10:39:08.511Z,73.13
2018-10-18T10:41:38.115Z,68.40
2018-10-18T10:44:09.158Z,74.63
2018-10-18T10:46:40.357Z,77.80
2018-10-18T10:49:10.505Z,75.67
2018-10-18T10:51:40.056Z,69.07
2018-10-18T10:54:10.254Z,65.40
2018-10-18T10:56:39.828Z,62.47
2018-10-18T10:59:18.681Z,60.97
2018-10-18T11:01:48.399Z,64.23
2018-10-18T11:04:17.964Z,68.13
2018-10-18T11:06:47.569Z,56.03
2018-10-18T11:09:17.211Z,68.63
2018-10-18T11:11:46.828Z,60.80
2018-10-18T11:14:16.482Z,63.03
2018-10-18T11:16:46.033Z,66.40
2018-10-18T11:19:15.611Z,57.17
2018-10-18T11:21:45.261Z,61.80
2018-10-18T11:24:14.864Z,57.27
2018-10-18T11:26:44.461Z,67.73
2018-10-18T11:29:14.040Z,57.43
2018-10-18T11:31:43.636Z,44.48
2018-10-18T11:34:13.292Z,52.95
2018-10-18T11:36:42.878Z,70.80
2018-10-18T11:39:12.477Z,58.40
2018-10-18T11:41:42.173Z,65.77
2018-10-18T11:44:11.860Z,60.40
2018-10-18T11:46:41.409Z,68.63
2018-10-18T11:49:11.143Z,53.42
2018-10-18T11:51:40.974Z,66.73
2018-10-18T11:54:10.586Z,64.53
2018-10-18T11:56:40.234Z,58.10
2018-10-18T11:59:09.915Z,69.83
2018-10-18T12:01:39.483Z,63.13
2018-10-18T12:04:09.153Z,61.17
2018-10-18T12:06:38.732Z,65.87
2018-10-18T12:09:10.853Z,66.13
2018-10-18T12:11:40.433Z,68.23
2018-10-18T12:14:10.310Z,74.23
2018-10-18T12:16:39.826Z,68.90
2018-10-18T12:19:09.608Z,68.07
2018-10-18T12:21:39.170Z,62.53
2018-10-18T12:24:08.797Z,70.93
2018-10-18T12:26:38.419Z,80.07
2018-10-18T12:29:08.095Z,84.57
2018-10-18T12:31:37.620Z,81.17
2018-10-18T12:34:07.314Z,73.20
2018-10-18T12:36:36.902Z,84.77
2018-10-18T12:39:09.080Z,70.93
2018-10-18T12:41:38.877Z,78.77
2018-10-18T12:44:08.414Z,94.67
2018-10-18T12:46:37.988Z,82.27
2018-10-18T12:49:07.617Z,108.03
2018-10-18T12:51:37.176Z,83.40
2018-10-18T12:54:07.654Z,96.77
2018-10-18T12:56:37.234Z,82.23
2018-10-18T12:59:07.040Z,75.47
2018-10-18T13:01:36.628Z,82.63
2018-10-18T13:04:06.229Z,88.13
2018-10-18T13:06:35.819Z,79.93
2018-10-18T13:09:08.159Z,74.90
2018-10-18T13:11:37.748Z,91.20
2018-10-18T13:14:07.608Z,92.27
2018-10-18T13:16:37.268Z,89.60
2018-10-18T13:19:07.260Z,93.00
2018-10-18T13:21:37.030Z,120.50
2018-10-18T13:24:06.843Z,123.43
2018-10-18T13:26:37.478Z,106.07
2018-10-18T13:29:08.009Z,93.37
2018-10-18T13:31:38.390Z,131.83
2018-10-18T13:34:08.823Z,95.30
2018-10-18T13:36:38.925Z,96.70
2018-10-18T13:39:11.412Z,91.37
2018-10-18T13:41:41.534Z,97.97
2018-10-18T13:44:11.946Z,104.17
2018-10-18T13:46:41.678Z,91.63
2018-10-18T13:49:11.637Z,85.63
2018-10-18T13:51:41.595Z,88.87
2018-10-18T13:54:11.677Z,97.40
2018-10-18T13:56:41.577Z,91.20
2018-10-18T13:59:28.412Z,85.97
2018-10-18T14:01:58.261Z,86.60
2018-10-18T14:04:28.360Z,89.63
2018-10-18T14:06:58.371Z,82.10
2018-10-18T14:09:28.410Z,97.67
2018-10-18T14:11:58.457Z,89.83
2018-10-18T14:14:28.725Z,90.87
2018-10-18T14:16:58.858Z,88.07
2018-10-18T14:19:28.577Z,75.17
2018-10-18T14:21:58.682Z,90.13
2018-10-18T14:24:28.787Z,84.70
2018-10-18T14:26:58.734Z,81.00
2018-10-18T14:29:28.944Z,100.30
2018-10-18T14:31:58.845Z,91.40
2018-10-18T14:34:28.803Z,92.93
2018-10-18T14:36:58.975Z,112.50
2018-10-18T14:39:28.833Z,95.47
2018-10-18T14:41:58.561Z,91.40
2018-10-18T14:44:28.330Z,96.20
2018-10-18T14:46:58.015Z,100.73
2018-10-18T14:49:27.916Z,95.67
2018-10-18T14:51:57.951Z,99.07
2018-10-18T14:54:27.859Z,103.70
2018-10-18T14:56:57.801Z,95.77
2018-10-18T14:59:27.761Z,112.37
2018-10-18T15:01:57.772Z,88.07
2018-10-18T15:04:27.698Z,91.90
2018-10-18T15:06:57.577Z,99.97
2018-10-18T15:09:27.553Z,109.20
2018-10-18T15:11:58.934Z,105.93
2018-10-18T15:14:29.081Z,94.37
2018-10-18T15:16:59.481Z,87.77
2018-10-18T15:19:31.251Z,90.37
2018-10-18T15:22:01.845Z,88.40
2018-10-18T15:24:32.149Z,91.57
2018-10-18T15:27:01.968Z,93.67
2018-10-18T15:29:31.575Z,92.80
2018-10-18T15:32:01.238Z,104.60
2018-10-18T15:34:30.870Z,107.30
2018-10-18T15:37:00.958Z,97.20
2018-10-18T15:39:30.815Z,85.20
2018-10-18T15:42:00.361Z,88.57
2018-10-18T15:44:30.185Z,93.67
2018-10-18T15:46:59.809Z,87.03
2018-10-18T15:49:29.520Z,90.17
2018-10-18T15:51:59.161Z,91.57
2018-10-18T15:54:28.944Z,87.35
2018-10-18T15:56:58.547Z,98.07
2018-10-18T15:59:28.296Z,93.17
2018-10-18T16:01:57.901Z,91.20
2018-10-18T16:04:27.485Z,86.63
2018-10-18T16:06:57.088Z,83.63
2018-10-18T16:09:27.729Z,84.50
2018-10-18T16:11:57.288Z,97.57
2018-10-18T16:14:26.897Z,95.03
2018-10-18T16:16:57.415Z,85.60
2018-10-18T16:19:28.547Z,93.20
2018-10-18T16:21:58.165Z,101.30
2018-10-18T16:24:27.766Z,106.87
2018-10-18T16:26:57.376Z,94.63
2018-10-18T16:29:27.590Z,98.57
2018-10-18T16:31:57.221Z,81.53
2018-10-18T16:34:26.891Z,94.67
2018-10-18T16:36:56.493Z,266.87
2018-10-18T16:39:26.095Z,125.87
2018-10-18T16:41:55.821Z,97.67
2018-10-18T16:44:25.465Z,96.40
2018-10-18T16:46:55.072Z,105.97
2018-10-18T16:49:24.697Z,97.80
2018-10-18T16:51:54.292Z,90.93
2018-10-18T16:54:23.910Z,101.40
2018-10-18T16:56:53.530Z,81.80
2018-10-18T16:59:23.170Z,97.60
2018-10-18T17:01:52.804Z,109.90
2018-10-18T17:04:22.578Z,85.50
2018-10-18T17:06:52.173Z,86.43
2018-10-18T17:09:21.858Z,94.40
2018-10-18T17:11:51.587Z,240.40
2018-10-18T17:14:21.215Z,82.27
2018-10-18T17:16:50.850Z,70.37
2018-10-18T17:19:20.482Z,69.67
2018-10-18T17:21:50.153Z,69.67
2018-10-18T17:24:19.741Z,57.50
2018-10-18T17:26:49.445Z,64.67
2018-10-18T17:29:19.357Z,52.20
2018-10-18T17:31:49.112Z,50.30
2018-10-18T17:34:18.874Z,47.83
2018-10-18T17:36:48.498Z,44.30
2018-10-18T17:39:18.547Z,38.93
2018-10-18T17:41:48.186Z,43.27
2018-10-18T17:44:18.010Z,39.37
2018-10-18T17:46:47.684Z,38.57
2018-10-18T17:49:17.429Z,62.77
2018-10-18T17:51:47.047Z,59.73
2018-10-18T17:54:16.793Z,54.30
2018-10-18T17:56:46.306Z,60.53
2018-10-18T17:59:15.928Z,54.40
2018-10-18T18:01:46.025Z,67.60
2018-10-18T18:04:15.698Z,66.17
2018-10-18T18:06:45.358Z,72.13
2018-10-18T18:09:15.003Z,64.07
2018-10-18T18:11:44.634Z,71.57
2018-10-18T18:14:14.224Z,62.00
2018-10-18T18:16:43.837Z,55.10
2018-10-18T18:19:13.413Z,53.70
2018-10-18T18:21:43.021Z,59.27
2018-10-18T18:24:12.611Z,51.90
2018-10-18T18:26:45.786Z,42.30
2018-10-18T18:29:11.882Z,52.33
2018-10-18T18:31:41.482Z,48.60
2018-10-18T18:34:11.019Z,49.83
2018-10-18T18:36:40.650Z,48.43
2018-10-18T18:39:11.373Z,46.97
2018-10-18T18:41:41.022Z,49.50
2018-10-18T18:44:10.553Z,50.57
2018-10-18T18:46:40.126Z,48.93
2018-10-18T18:49:09.657Z,51.83
2018-10-18T18:51:39.967Z,54.00
2018-10-18T18:54:09.882Z,45.00
2018-10-18T18:56:40.439Z,49.70
2018-10-18T18:59:10.161Z,44.27
2018-10-18T19:01:39.806Z,41.37
2018-10-18T19:04:09.372Z,45.60
2018-10-18T19:06:38.975Z,45.53
2018-10-18T19:09:10.095Z,63.57
2018-10-18T19:11:39.960Z,45.40
2018-10-18T19:14:09.985Z,42.03
2018-10-18T19:16:39.635Z,43.53
2018-10-18T19:19:09.230Z,38.70
2018-10-18T19:21:38.793Z,35.80
2018-10-18T19:24:08.420Z,34.70
2018-10-18T19:26:38.145Z,39.20
2018-10-18T19:29:08.011Z,34.63
2018-10-18T19:31:39.455Z,21.67
2018-10-18T19:34:09.178Z,28.63
2018-10-18T19:36:38.765Z,19.40
2018-10-18T19:39:09.509Z,25.40
2018-10-18T19:41:39.218Z,15.80
2018-10-18T19:44:08.757Z,26.70
2018-10-18T19:46:38.330Z,21.77
2018-10-18T19:49:07.862Z,13.77
2018-10-18T19:51:37.590Z,20.63
2018-10-18T19:54:07.149Z,18.00
2018-10-18T19:56:36.715Z,20.67
2018-10-18T19:59:06.377Z,15.50
2018-10-18T20:01:35.932Z,19.07
2018-10-18T20:04:05.880Z,23.13
2018-10-18T20:06:35.441Z,16.23
2018-10-18T20:09:08.139Z,16.50
2018-10-18T20:11:37.701Z,18.97
2018-10-18T20:14:07.374Z,19.40
2018-10-18T20:16:36.978Z,12.30
2018-10-18T20:19:07.068Z,20.43
2018-10-18T20:21:36.675Z,18.70
2018-10-18T20:24:07.042Z,11.77
2018-10-18T20:26:36.725Z,12.50
2018-10-18T20:29:06.324Z,25.50
2018-10-18T20:31:36.181Z,20.30
2018-10-18T20:34:06.259Z,14.60
2018-10-18T20:36:35.816Z,20.37
2018-10-18T20:39:08.181Z,18.03
2018-10-18T20:41:37.742Z,20.77
2018-10-18T20:44:07.645Z,18.07
2018-10-18T20:46:37.259Z,17.20
2018-10-18T20:49:07.215Z,17.70
2018-10-18T20:51:36.800Z,20.23
2018-10-18T20:54:06.915Z,19.00
2018-10-18T20:56:36.485Z,16.10
2018-10-18T20:59:06.139Z,12.67
2018-10-18T21:01:35.733Z,24.13
2018-10-18T21:04:05.382Z,10.90
2018-10-18T21:06:35.075Z,15.07
2018-10-18T21:09:06.270Z,17.10
2018-10-18T21:11:35.758Z,21.30
2018-10-18T21:14:05.510Z,15.40
2018-10-18T21:16:35.104Z,17.93
2018-10-18T21:19:04.734Z,8.47
2018-10-18T21:21:34.921Z,12.93
2018-10-18T21:24:04.637Z,19.80
2018-10-18T21:26:34.212Z,17.80
2018-10-18T21:29:03.894Z,19.33
2018-10-18T21:31:33.369Z,12.93
2018-10-18T21:34:02.958Z,10.43
2018-10-18T21:36:32.517Z,14.03
2018-10-18T21:39:02.039Z,6.63
2018-10-18T21:41:31.581Z,7.63
2018-10-18T21:44:01.199Z,4.60
2018-10-18T21:46:30.778Z,14.57
2018-10-18T21:49:00.594Z,13.17
2018-10-18T21:51:30.018Z,9.70
2018-10-18T21:53:59.669Z,13.10
2018-10-18T21:56:29.246Z,8.20
2018-10-18T21:58:58.805Z,8.30
2018-10-18T22:01:28.417Z,8.77
2018-10-18T22:03:57.921Z,11.57
2018-10-18T22:06:27.585Z,5.87
2018-10-18T22:08:57.153Z,4.80
2018-10-18T22:11:26.714Z,4.83
2018-10-18T22:13:56.243Z,10.80
2018-10-18T22:16:25.831Z,11.13
2018-10-18T22:18:55.879Z,5.93
2018-10-18T22:21:25.518Z,8.73
2018-10-18T22:23:55.049Z,11.17
2018-10-18T22:26:24.837Z,9.70
2018-10-18T22:28:54.395Z,7.87
2018-10-18T22:31:24.078Z,7.03
2018-10-18T22:33:53.613Z,9.47
2018-10-18T22:36:23.733Z,5.03
2018-10-18T22:38:53.555Z,5.63
2018-10-18T22:41:23.304Z,6.10
2018-10-18T22:43:52.871Z,6.10
2018-10-18T22:46:22.379Z,5.70
2018-10-18T22:48:52.010Z,7.03
2018-10-18T22:51:21.550Z,8.57
2018-10-18T22:53:51.081Z,5.37
2018-10-18T22:56:20.617Z,8.10
2018-10-18T22:58:50.175Z,13.50
2018-10-18T23:01:19.728Z,3.67
2018-10-18T23:03:49.264Z,12.47
2018-10-18T23:06:18.805Z,12.50
2018-10-18T23:08:48.372Z,6.77
2018-10-18T23:11:17.892Z,5.50
2018-10-18T23:13:47.440Z,9.17
2018-10-18T23:16:16.992Z,7.20
2018-10-18T23:18:46.584Z,6.87
2018-10-18T23:21:16.236Z,7.30
2018-10-18T23:23:45.738Z,13.50
2018-10-18T23:26:15.328Z,12.03
2018-10-18T23:28:44.873Z,24.50
2018-10-18T23:31:14.392Z,12.90
2018-10-18T23:33:44.058Z,7.70
2018-10-18T23:36:13.563Z,10.13
2018-10-18T23:38:43.128Z,7.43
2018-10-18T23:41:12.724Z,8.40
2018-10-18T23:43:42.216Z,9.70
2018-10-18T23:46:11.786Z,9.13
2018-10-18T23:48:41.445Z,6.93
2018-10-18T23:51:11.068Z,5.40
2018-10-18T23:53:40.802Z,7.70
2018-10-18T23:56:10.427Z,8.27
2018-10-18T23:58:40.016Z,8.93
